< < Back
Terminal Aerodrome Forecast


Current Version              Previous Versions:   1  2  3  4  5  6  7  8  9  

Terminal Aerodrome Forecast

955
FTAK31 PAJN 050532
TAFAHN
TAF
PAHN 050532Z 0506/0606 09006KT P6SM VCSH OVC060
     FM050800 10005KT P6SM -RA SCT020 OVC035
     FM051300 VRB05KT P6SM -SHRA SCT025 OVC040
     FM052000 12006KT P6SM VCSH SCT025 OVC040
      AMD LTD TO CLD VIS AND WIND=

Latest METAR

099
SAUS70 KWBC 051200
MTRAHN
METAR KAHN 051151Z 06007KT 9SM CLR 21/19 A3012 RMK AO2 SLP192 T02060189
10217 20200 53011


USA.gov is the U.S. government's official web portal to all federal, state and local government web resources and services.